Time;durP1;ratioP1;P1;durP2;ratioP2;P2;SDS_P1;SDS_P2;PMS_P1;PMS_P2;Temp;Humidity;BMP_temperature;BMP_pressure;BME280_temperature;BME280_humidity;BME280_pressure;Samples;Min_cycle;Max_cycle;Signal;HPM_P1;HPM_P2
2021/12/17 00:00:46;;;;;;;3.88;3.48;;;;;;;1.15;75.21;100845.72;458251;112;922777;-73
2021/12/17 00:03:11;;;;;;;3.43;3.13;;;;;;;1.11;75.40;100844.30;458009;112;922767;-72
2021/12/17 00:04:14;;;;;;;4.09;3.67;;;;;;;1.09;75.44;100847.16;458863;114;922696;-74
2021/12/17 00:05:12;;;;;;;3.96;3.66;;;;;;;1.07;75.50;100846.45;457541;114;922763;-74
2021/12/17 00:07:35;;;;;;;3.56;3.26;;;;;;;1.06;75.67;100846.58;457897;114;923136;-72
2021/12/17 00:08:41;;;;;;;3.95;3.59;;;;;;;1.06;75.75;100843.90;452713;115;922828;-72
2021/12/17 00:09:46;;;;;;;3.37;3.08;;;;;;;1.07;75.86;100845.59;454608;114;922833;-73
2021/12/17 00:10:51;;;;;;;3.51;3.21;;;;;;;1.06;75.83;100839.38;459460;112;922911;-74
2021/12/17 00:11:54;;;;;;;3.43;3.13;;;;;;;1.07;75.88;100840.22;459242;112;922636;-74
2021/12/17 00:12:57;;;;;;;3.14;2.83;;;;;;;1.09;76.08;100832.88;455391;114;922760;-73
2021/12/17 00:14:00;;;;;;;3.41;3.11;;;;;;;1.10;76.21;100834.58;453125;114;922721;-72
2021/12/17 00:15:06;;;;;;;4.03;3.63;;;;;;;1.12;76.32;100832.57;458486;114;923185;-73
2021/12/17 00:16:16;;;;;;;3.61;3.31;;;;;;;1.13;76.28;100829.75;459204;112;922675;-73
2021/12/17 00:17:23;;;;;;;3.44;3.14;;;;;;;1.15;76.28;100827.77;458773;112;922921;-73
2021/12/17 00:18:41;;;;;;;4.14;3.76;;;;;;;1.15;76.23;100822.41;459115;114;922988;-73
2021/12/17 00:40:24;;;;;;;3.59;3.29;;;;;;;1.09;76.34;100809.56;458254;112;922723;-72
2021/12/17 00:49:31;;;;;;;4.69;4.29;;;;;;;1.13;76.13;100807.41;459257;111;922674;-73
2021/12/17 00:51:22;;;;;;;4.83;4.41;;;;;;;1.13;76.08;100800.20;459805;112;922892;-74
2021/12/17 00:52:01;;;;;;;4.59;4.19;;;;;;;1.13;75.97;100802.89;446549;115;922739;-73
2021/12/17 00:53:06;;;;;;;4.41;4.09;;;;;;;1.15;76.00;100800.06;451744;114;923182;-72
2021/12/17 00:54:20;;;;;;;3.67;3.38;;;;;;;1.16;76.03;100807.95;462539;111;923114;-72
2021/12/17 00:55:20;;;;;;;4.28;3.94;;;;;;;1.16;75.96;100807.95;459465;112;922801;-73
2021/12/17 00:56:26;;;;;;;3.80;3.48;;;;;;;1.17;75.83;100796.22;460703;112;922637;-73
2021/12/17 00:57:36;;;;;;;4.28;3.89;;;;;;;1.17;75.76;100793.53;460280;113;922896;-74
2021/12/17 00:58:35;;;;;;;3.96;3.61;;;;;;;1.17;75.76;100787.31;461182;112;922629;-73
2021/12/17 00:59:40;;;;;;;4.70;4.30;;;;;;;1.16;75.70;100780.25;460998;112;922513;-72
2021/12/17 01:00:44;;;;;;;4.69;4.29;;;;;;;1.16;75.73;100780.25;460290;111;922516;-73
2021/12/17 01:01:48;;;;;;;4.48;4.10;;;;;;;1.16;75.80;100782.94;459649;114;922895;-74
2021/12/17 01:02:53;;;;;;;4.07;3.74;;;;;;;1.18;75.86;100778.27;459499;112;930810;-73
2021/12/17 01:03:57;;;;;;;4.52;4.12;;;;;;;1.20;75.91;100770.92;459389;112;922645;-73
2021/12/17 01:05:04;;;;;;;4.88;4.48;;;;;;;1.22;75.80;100772.44;459606;113;922620;-73
2021/12/17 01:06:07;;;;;;;5.07;4.58;;;;;;;1.22;75.77;100775.13;454199;114;922828;-72
2021/12/17 01:07:12;;;;;;;4.81;4.44;;;;;;;1.23;75.74;100767.92;453610;114;922726;-72
2021/12/17 01:08:15;;;;;;;4.51;4.11;;;;;;;1.24;75.71;100765.09;459736;113;930611;-73
2021/12/17 01:09:22;;;;;;;5.52;5.06;;;;;;;1.25;75.67;100766.79;459493;112;930553;-72
2021/12/17 01:10:32;;;;;;;6.48;5.64;;;;;;;1.25;75.68;100766.79;459723;112;930560;-73
2021/12/17 01:11:49;;;;;;;5.04;4.49;;;;;;;1.27;75.67;100763.93;452306;115;922797;-73
2021/12/17 01:13:01;;;;;;;5.33;4.85;;;;;;;1.30;75.68;100762.80;456518;113;923246;-73
2021/12/17 01:14:12;;;;;;;4.51;4.11;;;;;;;1.31;75.55;100759.97;454608;112;922604;-72
2021/12/17 01:15:32;;;;;;;4.53;4.14;;;;;;;1.31;75.51;100759.13;445851;116;922885;-72
2021/12/17 01:16:43;;;;;;;4.52;4.12;;;;;;;1.31;75.47;100751.91;441024;116;923591;-71
2021/12/17 01:17:52;;;;;;;5.03;4.37;;;;;;;1.31;75.50;100753.75;446404;115;922926;-73
2021/12/17 01:23:03;;;;;;;6.43;4.22;;;;;;;1.36;75.37;100748.77;454320;114;930761;-74
2021/12/17 01:25:17;;;;;;;7.71;4.03;;;;;;;1.41;75.38;100741.95;458933;112;922794;-73
2021/12/17 01:36:23;;;;;;;3.98;3.29;;;;;;;1.50;74.76;100714.15;465308;113;922651;-73
2021/12/17 01:42:46;;;;;;;7.41;4.77;;;;;;;1.44;74.51;100682.52;467266;111;922518;-73
2021/12/17 01:43:50;;;;;;;6.89;3.53;;;;;;;1.42;74.54;100678.31;467238;111;923538;-73
2021/12/17 01:44:53;;;;;;;4.72;3.76;;;;;;;1.40;74.61;100675.77;467729;113;923165;-73
2021/12/17 01:45:58;;;;;;;7.54;4.73;;;;;;;1.41;74.67;100677.47;467373;112;930804;-74
2021/12/17 01:47:01;;;;;;;7.00;4.08;;;;;;;1.43;74.70;100680.01;465757;113;923360;-73
2021/12/17 01:48:11;;;;;;;7.09;4.49;;;;;;;1.44;74.68;100676.30;466536;111;922629;-74
2021/12/17 01:59:58;;;;;;;17.08;5.41;;;;;;;1.39;74.51;100667.86;463765;113;922554;-74
2021/12/17 02:01:04;;;;;;;11.48;6.96;;;;;;;1.42;74.54;100667.56;463863;113;922571;-73
2021/12/17 02:02:09;;;;;;;10.00;6.36;;;;;;;1.43;74.56;100671.95;463036;113;922614;-73
2021/12/17 02:03:14;;;;;;;10.22;7.41;;;;;;;1.45;74.63;100661.88;463741;113;922839;-73
2021/12/17 02:04:18;;;;;;;13.04;7.26;;;;;;;1.49;74.73;100668.66;463427;113;924074;-72
2021/12/17 02:05:21;;;;;;;11.08;7.35;;;;;;;1.54;74.72;100664.50;464544;113;922545;-72
2021/12/17 02:06:28;;;;;;;8.62;7.26;;;;;;;1.59;74.80;100667.56;464417;113;930478;-73
2021/12/17 02:07:29;;;;;;;10.58;5.91;;;;;;;1.65;74.60;100661.54;463831;113;922729;-73
2021/12/17 02:08:34;;;;;;;6.68;4.85;;;;;;;1.68;74.39;100652.34;464489;113;922819;-73
2021/12/17 02:21:12;;;;;;;5.43;4.07;;;;;;;1.68;73.77;100631.68;463775;113;923103;-73
2021/12/17 02:22:34;;;;;;;6.31;4.58;;;;;;;1.67;73.92;100635.36;461957;113;922503;-73
2021/12/17 02:29:13;;;;;;;7.47;6.81;;;;;;;1.73;74.29;100614.23;456484;114;923141;-74
2021/12/17 02:31:30;;;;;;;7.10;6.48;;;;;;;1.69;74.31;100616.41;454595;114;922722;-73
2021/12/17 02:32:37;;;;;;;7.19;6.51;;;;;;;1.68;74.32;100622.77;456000;113;922527;-74
2021/12/17 02:33:40;;;;;;;8.20;6.39;;;;;;;1.68;74.38;100620.94;463107;113;922589;-73
2021/12/17 02:35:49;;;;;;;5.39;4.89;;;;;;;1.76;74.58;100616.63;463312;113;922608;-72
2021/12/17 02:36:53;;;;;;;5.02;4.54;;;;;;;1.80;74.45;100617.98;464678;112;922952;-73
2021/12/17 02:38:00;;;;;;;4.18;3.88;;;;;;;1.82;74.35;100613.31;462688;113;930464;-73
2021/12/17 02:46:11;;;;;;;4.65;3.61;;;;;;;1.91;74.00;100613.20;458087;114;922861;-71
2021/12/17 02:47:14;;;;;;;5.54;3.79;;;;;;;1.95;74.00;100611.02;459593;114;922661;-73
2021/12/17 02:48:21;;;;;;;4.54;4.14;;;;;;;1.97;73.85;100620.63;464644;113;922840;-71
2021/12/17 02:49:27;;;;;;;6.36;4.11;;;;;;;1.98;73.76;100611.57;464294;113;922906;-72
2021/12/17 02:50:31;;;;;;;4.52;3.92;;;;;;;2.00;73.61;100608.70;455502;115;922885;-72
2021/12/17 02:51:34;;;;;;;5.55;3.71;;;;;;;1.98;73.49;100606.20;453777;114;922720;-73
2021/12/17 02:52:38;;;;;;;4.62;3.87;;;;;;;1.99;73.36;100605.16;450717;115;923207;-72
2021/12/17 02:53:41;;;;;;;4.43;4.03;;;;;;;1.99;73.32;100604.31;450967;115;922596;-71
2021/12/17 02:54:46;;;;;;;4.26;3.91;;;;;;;1.98;73.26;100606.20;456686;115;922622;-71
2021/12/17 02:55:56;;;;;;;5.69;4.23;;;;;;;1.98;73.15;100600.81;446491;117;923415;-71
2021/12/17 02:57:00;;;;;;;4.27;3.81;;;;;;;1.95;73.05;100595.73;438579;118;930516;-71
2021/12/17 02:58:04;;;;;;;5.82;4.44;;;;;;;1.94;73.07;100596.73;438649;119;922720;-72
2021/12/17 02:59:13;;;;;;;4.54;4.03;;;;;;;1.94;73.06;100598.58;447611;117;922372;-72
2021/12/17 03:00:14;;;;;;;5.92;4.42;;;;;;;1.92;73.11;100590.69;437601;119;922650;-73
2021/12/17 03:01:18;;;;;;;4.58;4.03;;;;;;;1.94;73.13;100594.05;440421;119;922677;-73
2021/12/17 03:02:26;;;;;;;4.51;4.03;;;;;;;1.96;73.22;100593.89;439187;119;922634;-74
2021/12/17 03:03:32;;;;;;;4.77;3.93;;;;;;;1.99;73.24;100594.41;440252;119;922781;-71
2021/12/17 03:04:40;;;;;;;5.31;4.51;;;;;;;2.02;73.10;100593.27;439526;119;923005;-72
2021/12/17 03:05:43;;;;;;;4.47;4.08;;;;;;;2.04;73.03;100594.77;446919;116;922663;-72
2021/12/17 03:06:47;;;;;;;4.66;4.15;;;;;;;2.07;73.03;100590.94;443982;118;922652;-73
2021/12/17 03:07:50;;;;;;;4.44;4.04;;;;;;;2.08;72.94;100589.94;444485;119;922838;-72
2021/12/17 03:08:53;;;;;;;4.48;4.07;;;;;;;2.09;72.85;100591.62;443612;119;922685;-74
2021/12/17 03:10:07;;;;;;;4.59;4.07;;;;;;;2.10;72.84;100594.14;444227;118;931167;-73
2021/12/17 03:11:09;;;;;;;5.06;3.88;;;;;;;2.13;72.83;100594.83;443967;118;922903;-73
2021/12/17 03:12:19;;;;;;;4.68;4.16;;;;;;;2.15;72.87;100595.52;447308;117;922526;-73
2021/12/17 03:13:23;;;;;;;4.32;3.92;;;;;;;2.18;72.79;100587.97;440424;118;922563;-73
2021/12/17 03:14:28;;;;;;;4.77;4.37;;;;;;;2.19;72.67;100594.19;438592;120;923028;-73
2021/12/17 03:15:38;;;;;;;5.36;4.36;;;;;;;2.19;72.48;100589.66;440318;119;922657;-73
2021/12/17 03:16:43;;;;;;;4.98;4.46;;;;;;;2.19;72.41;100594.19;444743;119;922738;-72
2021/12/17 03:24:18;;;;;;;4.97;4.48;;;;;;;2.23;72.20;100582.95;441417;119;922581;-74
2021/12/17 03:25:19;;;;;;;5.21;4.79;;;;;;;2.21;72.16;100574.18;438911;118;922550;-74
2021/12/17 03:26:25;;;;;;;5.50;4.98;;;;;;;2.21;72.18;100579.56;447059;117;922460;-73
2021/12/17 03:27:29;;;;;;;5.66;5.16;;;;;;;2.20;72.08;100577.91;437184;119;922647;-73
2021/12/17 03:28:33;;;;;;;6.26;5.66;;;;;;;2.18;72.05;100566.45;446695;117;922573;-73
2021/12/17 03:29:37;;;;;;;7.23;6.63;;;;;;;2.18;72.02;100571.83;439473;119;923071;-73
2021/12/17 03:30:41;;;;;;;8.95;8.16;;;;;;;2.18;71.93;100570.98;441073;119;930977;-73
2021/12/17 03:31:45;;;;;;;9.91;9.01;;;;;;;2.20;72.00;100571.67;436311;120;930681;-72
2021/12/17 03:32:48;;;;;;;11.52;10.43;;;;;;;2.19;72.01;100564.61;450880;115;930914;-74
2021/12/17 03:33:57;;;;;;;13.06;11.86;;;;;;;2.19;71.94;100560.07;456564;115;922633;-73
2021/12/17 03:35:00;;;;;;;13.86;12.41;;;;;;;2.19;71.84;100561.91;455986;115;930398;-72
2021/12/17 03:36:04;;;;;;;9.75;8.87;;;;;;;2.17;71.83;100561.22;456472;115;922513;-72
2021/12/17 03:37:08;;;;;;;7.27;6.67;;;;;;;2.15;71.86;100560.56;455830;115;930585;-71
2021/12/17 03:38:13;;;;;;;6.09;5.51;;;;;;;2.16;71.93;100559.53;455778;115;922692;-73
2021/12/17 03:39:17;;;;;;;6.06;5.54;;;;;;;2.17;71.94;100558.53;449760;116;922465;-73
2021/12/17 03:40:21;;;;;;;6.05;5.48;;;;;;;2.18;71.84;100554.84;448862;115;922765;-72
2021/12/17 03:41:34;;;;;;;6.09;5.36;;;;;;;2.17;71.78;100555.84;456159;114;930637;-73
2021/12/17 03:42:38;;;;;;;5.12;4.74;;;;;;;2.17;71.70;100561.22;440957;119;930641;-73
2021/12/17 03:43:42;;;;;;;5.54;5.04;;;;;;;2.15;71.65;100557.87;446485;117;922575;-73
2021/12/17 03:44:46;;;;;;;4.86;4.46;;;;;;;2.13;71.64;100562.55;441369;119;922773;-72
2021/12/17 03:45:54;;;;;;;5.46;4.96;;;;;;;2.11;71.68;100562.70;427041;119;922797;-73
2021/12/17 03:46:57;;;;;;;5.50;5.10;;;;;;;2.11;71.71;100562.70;440928;118;922787;-72
2021/12/17 03:48:00;;;;;;;5.69;5.19;;;;;;;2.13;71.73;100570.62;440394;119;922538;-72
2021/12/17 03:49:04;;;;;;;4.83;4.42;;;;;;;2.15;71.83;100571.31;436046;119;922740;-73
2021/12/17 03:50:08;;;;;;;4.54;4.15;;;;;;;2.18;71.96;100568.29;443241;118;930956;-73
2021/12/17 03:51:17;;;;;;;4.52;4.11;;;;;;;2.23;71.96;100568.65;443437;119;923044;-72
2021/12/17 03:52:20;;;;;;;4.43;4.03;;;;;;;2.25;71.93;100562.12;446562;117;923374;-73
2021/12/17 03:53:24;;;;;;;4.07;3.77;;;;;;;2.31;71.90;100568.70;450486;117;922582;-75
2021/12/17 03:54:27;;;;;;;3.83;3.52;;;;;;;2.35;71.90;100561.98;450727;116;930677;-72
2021/12/17 03:55:31;;;;;;;4.37;3.97;;;;;;;2.39;71.74;100561.48;450130;117;930700;-74
2021/12/17 03:56:34;;;;;;;4.52;4.22;;;;;;;2.42;71.63;100565.72;451170;117;923408;-73
2021/12/17 03:57:38;;;;;;;4.73;4.33;;;;;;;2.45;71.53;100565.38;450673;116;922691;-72
2021/12/17 03:58:41;;;;;;;4.49;4.12;;;;;;;2.48;71.40;100559.69;450474;116;922500;-72
2021/12/17 03:59:45;;;;;;;4.59;4.29;;;;;;;2.50;71.33;100560.34;451786;117;930615;-73
2021/12/17 04:00:48;;;;;;;4.53;4.13;;;;;;;2.51;71.22;100565.58;451537;116;930960;-73
2021/12/17 04:01:52;;;;;;;4.30;3.99;;;;;;;2.51;71.10;100560.19;451247;116;923293;-73
2021/12/17 04:02:55;;;;;;;5.12;4.71;;;;;;;2.51;71.12;100565.58;451690;117;922654;-74
2021/12/17 04:04:04;;;;;;;4.36;3.98;;;;;;;2.51;71.11;100565.58;449261;116;922684;-72
2021/12/17 04:05:08;;;;;;;4.62;4.21;;;;;;;2.51;70.98;100564.73;449049;117;922650;-73
2021/12/17 04:06:15;;;;;;;4.78;4.39;;;;;;;2.50;71.01;100557.66;446633;117;923476;-73
2021/12/17 04:07:26;;;;;;;5.04;4.64;;;;;;;2.50;71.14;100552.27;449742;116;923462;-74
2021/12/17 04:08:32;;;;;;;4.26;3.92;;;;;;;2.53;71.14;100551.11;446957;116;922630;-76
2021/12/17 04:09:54;;;;;;;4.52;4.22;;;;;;;2.54;71.14;100550.12;449819;116;923254;-72
2021/12/17 04:11:05;;;;;;;4.36;4.01;;;;;;;2.57;71.08;100549.77;449746;116;923838;-73
2021/12/17 04:12:14;;;;;;;4.29;3.81;;;;;;;2.56;70.98;100540.85;449958;116;922779;-73
2021/12/17 04:14:41;;;;;;;4.02;3.72;;;;;;;2.57;70.81;100547.92;450393;117;922743;-73
2021/12/17 04:15:38;;;;;;;4.34;3.93;;;;;;;2.55;70.74;100546.39;449580;116;923116;-73
2021/12/17 04:16:42;;;;;;;4.12;3.82;;;;;;;2.56;70.71;100548.08;443364;118;923103;-73
2021/12/17 04:17:53;;;;;;;4.04;3.74;;;;;;;2.55;70.62;100546.39;444086;117;930686;-73
2021/12/17 04:18:51;;;;;;;3.81;3.51;;;;;;;2.55;70.60;100544.55;449957;117;930843;-74
2021/12/17 04:19:56;;;;;;;4.09;3.78;;;;;;;2.55;70.56;100544.55;442289;118;922760;-74
2021/12/17 04:21:02;;;;;;;6.49;3.71;;;;;;;2.55;70.54;100547.23;442926;115;922595;-74
2021/12/17 04:22:06;;;;;;;4.91;4.51;;;;;;;2.55;70.54;100549.08;450831;116;930670;-73
2021/12/17 04:23:10;;;;;;;7.34;5.45;;;;;;;2.57;70.66;100556.00;450876;117;922522;-74
2021/12/17 04:24:13;;;;;;;6.38;5.74;;;;;;;2.59;70.70;100556.69;451146;116;930627;-73
2021/12/17 04:25:17;;;;;;;5.78;5.28;;;;;;;2.60;70.63;100557.50;451816;116;922662;-73
2021/12/17 04:26:22;;;;;;;6.19;5.22;;;;;;;2.58;70.46;100559.54;451135;116;922504;-73
2021/12/17 04:27:28;;;;;;;5.99;5.33;;;;;;;2.56;70.45;100556.16;451424;117;930643;-72
2021/12/17 04:28:31;;;;;;;6.45;5.85;;;;;;;2.53;70.49;100553.80;450809;117;922575;-72
2021/12/17 04:29:41;;;;;;;6.71;5.30;;;;;;;2.50;70.60;100558.50;451729;115;930572;-73
2021/12/17 04:30:41;;;;;;;6.64;6.04;;;;;;;2.49;70.73;100550.58;450292;116;922753;-72
2021/12/17 04:31:50;;;;;;;6.28;5.67;;;;;;;2.49;70.68;100559.50;449191;117;922453;-72
2021/12/17 04:32:50;;;;;;;9.12;6.84;;;;;;;2.48;70.69;100559.69;449764;116;922649;-74
2021/12/17 04:33:54;;;;;;;7.24;6.27;;;;;;;2.46;70.81;100556.30;450874;117;922985;-73
2021/12/17 04:34:59;;;;;;;7.01;6.32;;;;;;;2.46;70.84;100558.99;450197;117;922565;-73
2021/12/17 04:36:04;;;;;;;7.96;6.84;;;;;;;2.45;70.94;100555.45;450120;117;923914;-73
2021/12/17 04:37:08;;;;;;;8.14;7.23;;;;;;;2.47;70.99;100558.84;441698;118;922679;-73
2021/12/17 04:38:18;;;;;;;8.74;7.55;;;;;;;2.49;71.01;100556.81;439185;116;931282;-73
2021/12/17 04:39:23;;;;;;;8.36;7.08;;;;;;;2.49;71.02;100556.81;452288;116;922956;-73
2021/12/17 04:40:27;;;;;;;9.57;8.57;;;;;;;2.51;71.16;100554.80;451962;116;922552;-71
2021/12/17 04:44:05;;;;;;;11.84;10.67;;;;;;;2.72;71.27;100578.58;466106;110;1193666;-72
2021/12/17 04:45:01;;;;;;;11.99;10.97;;;;;;;2.66;71.12;100573.00;459845;113;930380;-72
2021/12/17 04:57:22;;;;;;;12.11;11.02;;;;;;;2.66;71.04;100563.08;447255;116;923039;-72
2021/12/17 04:58:21;;;;;;;12.19;9.52;;;;;;;2.63;70.86;100568.80;449368;116;923060;-71
2021/12/17 04:59:25;;;;;;;11.54;10.14;;;;;;;2.58;70.85;100563.08;456347;114;922896;-72
2021/12/17 05:00:31;;;;;;;10.88;9.51;;;;;;;2.52;70.97;100558.34;454752;114;923069;-73
2021/12/17 05:01:39;;;;;;;12.18;10.82;;;;;;;2.47;71.15;100558.84;449332;115;923114;-74
2021/12/17 05:02:46;;;;;;;11.16;10.14;;;;;;;2.44;71.20;100553.77;456544;114;923077;-72
2021/12/17 05:03:49;;;;;;;11.74;10.64;;;;;;;2.41;71.38;100556.80;447238;117;930180;-73
2021/12/17 05:04:54;;;;;;;10.08;8.75;;;;;;;2.39;71.51;100556.11;447701;115;922566;-72
2021/12/17 05:05:58;;;;;;;10.57;8.38;;;;;;;2.38;71.54;100550.88;455663;114;922953;-73
2021/12/17 05:07:06;;;;;;;11.72;8.13;;;;;;;2.35;71.63;100553.91;456020;114;922580;-73
2021/12/17 05:08:15;;;;;;;8.58;7.80;;;;;;;2.33;71.80;100554.06;456057;114;922557;-75
2021/12/17 05:09:48;;;;;;;7.86;7.06;;;;;;;2.31;72.01;100547.17;456330;114;923145;-73
2021/12/17 05:18:23;;;;;;;8.96;8.08;;;;;;;2.24;73.33;100541.59;447595;117;922850;-73
2021/12/17 05:21:32;;;;;;;11.34;10.16;;;;;;;2.30;73.54;100548.17;455980;114;922585;-72
2021/12/17 05:22:36;;;;;;;10.22;9.24;;;;;;;2.31;73.61;100547.17;456065;114;922626;-75
2021/12/17 05:23:40;;;;;;;10.36;9.39;;;;;;;2.30;73.54;100551.71;456599;114;923233;-73
2021/12/17 05:24:44;;;;;;;10.14;9.18;;;;;;;2.30;73.61;100554.41;456427;114;922504;-73
2021/12/17 05:25:48;;;;;;;11.55;9.97;;;;;;;2.29;73.63;100551.86;453563;114;923266;-72
2021/12/17 05:26:52;;;;;;;10.18;8.96;;;;;;;2.27;73.66;100543.95;453582;114;923050;-72
2021/12/17 05:28:01;;;;;;;13.57;9.67;;;;;;;2.25;73.72;100537.91;456527;114;922656;-72
2021/12/17 05:29:02;;;;;;;11.61;9.77;;;;;;;2.24;73.83;100538.06;455987;114;923431;-72
2021/12/17 05:30:08;;;;;;;13.19;9.78;;;;;;;2.26;73.96;100539.56;455861;114;922641;-72
2021/12/17 05:31:12;;;;;;;13.13;9.35;;;;;;;2.25;74.05;100532.53;448991;115;922660;-72
2021/12/17 05:32:18;;;;;;;10.79;8.36;;;;;;;2.28;74.05;100534.88;447988;116;922600;-72
2021/12/17 05:33:23;;;;;;;9.32;8.08;;;;;;;2.28;74.04;100534.03;456994;114;922721;-72
2021/12/17 05:34:26;;;;;;;8.04;7.37;;;;;;;2.26;74.01;100531.49;456145;115;922439;-72
2021/12/17 05:35:32;;;;;;;10.68;7.46;;;;;;;2.25;74.21;100535.22;456551;114;930669;-71
2021/12/17 05:36:36;;;;;;;9.36;7.19;;;;;;;2.24;74.37;100524.61;456100;115;922763;-72
2021/12/17 05:37:42;;;;;;;7.69;6.92;;;;;;;2.22;74.51;100522.07;455961;116;922654;-73
2021/12/17 05:38:45;;;;;;;10.69;9.71;;;;;;;2.21;74.65;100515.00;456460;113;922842;-71
2021/12/17 05:39:49;;;;;;;14.58;12.63;;;;;;;2.21;74.71;100508.78;456435;114;922607;-71
2021/12/17 05:40:54;;;;;;;26.85;23.56;;;;;;;2.19;74.80;100517.03;456371;114;930706;-73
2021/12/17 05:41:58;;;;;;;35.79;26.36;;;;;;;2.17;74.85;100516.34;456561;114;922672;-73
2021/12/17 05:43:06;;;;;;;26.01;20.19;;;;;;;2.15;74.87;100517.52;456240;114;923087;-72
2021/12/17 05:44:14;;;;;;;19.67;16.76;;;;;;;2.12;75.08;100521.37;453115;114;922529;-72
2021/12/17 05:45:47;;;;;;;18.56;16.86;;;;;;;2.12;75.23;100526.75;452527;114;922732;-73
2021/12/17 05:46:58;;;;;;;20.47;17.89;;;;;;;2.13;75.23;100524.91;450903;116;922785;-73
2021/12/17 05:47:42;;;;;;;16.30;14.91;;;;;;;2.09;75.32;100521.70;447597;114;923614;-73
2021/12/17 05:48:46;;;;;;;10.84;9.82;;;;;;;2.08;75.51;100522.70;452599;114;922631;-75
2021/12/17 05:49:49;;;;;;;13.91;12.25;;;;;;;2.07;75.64;100524.55;453343;114;930211;-74
2021/12/17 05:50:57;;;;;;;12.37;11.21;;;;;;;2.07;75.81;100526.39;453479;116;923374;-72
2021/12/17 05:52:04;;;;;;;12.23;10.84;;;;;;;2.09;76.05;100525.20;452632;116;927331;-73
2021/12/17 05:53:09;;;;;;;12.22;11.12;;;;;;;2.10;76.06;100518.83;452615;114;923489;-71
2021/12/17 05:54:13;;;;;;;12.34;11.24;;;;;;;2.10;75.99;100521.52;452917;114;922704;-74
2021/12/17 05:55:16;;;;;;;12.88;11.58;;;;;;;2.10;76.07;100521.52;453488;114;922719;-72
2021/12/17 05:56:21;;;;;;;10.96;10.11;;;;;;;2.11;76.07;100514.30;453177;115;922539;-74
2021/12/17 05:57:27;;;;;;;11.24;10.18;;;;;;;2.11;76.11;100519.67;452041;114;922656;-72
2021/12/17 05:58:30;;;;;;;10.68;9.72;;;;;;;2.12;76.16;100517.83;453031;116;923134;-72
2021/12/17 05:59:35;;;;;;;10.18;9.29;;;;;;;2.10;76.10;100524.20;452943;116;922681;-74
2021/12/17 06:00:41;;;;;;;9.18;8.40;;;;;;;2.08;76.01;100523.55;452480;114;922577;-72
2021/12/17 06:02:10;;;;;;;9.59;8.72;;;;;;;2.06;76.08;100522.86;453079;114;922558;-76
2021/12/17 06:03:11;;;;;;;9.73;8.97;;;;;;;2.06;76.11;100516.63;452883;115;922679;-74
2021/12/17 06:04:16;;;;;;;9.91;8.82;;;;;;;2.04;76.13;100516.78;452195;116;922531;-73
2021/12/17 06:05:29;;;;;;;9.36;8.59;;;;;;;2.05;76.10;100514.94;452560;116;922754;-71
2021/12/17 06:06:35;;;;;;;9.39;8.59;;;;;;;2.06;76.34;100512.09;444149;117;922784;-73
2021/12/17 06:07:39;;;;;;;10.58;9.67;;;;;;;2.09;76.44;100511.76;445375;116;922609;-73
2021/12/17 06:08:45;;;;;;;11.16;10.25;;;;;;;2.13;76.30;100508.77;453176;115;922915;-72
2021/12/17 06:09:48;;;;;;;11.08;10.10;;;;;;;2.14;76.17;100513.98;453154;115;922899;-73
2021/12/17 06:10:54;;;;;;;10.50;9.68;;;;;;;2.15;76.15;100512.14;452908;115;923040;-73
2021/12/17 06:11:57;;;;;;;10.11;9.32;;;;;;;2.15;76.05;100512.96;453333;115;922599;-74
2021/12/17 06:13:01;;;;;;;8.79;8.09;;;;;;;2.16;76.11;100516.49;453440;115;922851;-73
2021/12/17 06:14:05;;;;;;;8.98;8.13;;;;;;;2.19;76.28;100508.97;452851;114;930577;-74
2021/12/17 06:15:13;;;;;;;7.60;6.92;;;;;;;2.21;76.35;100509.62;452215;115;922541;-73
2021/12/17 06:16:18;;;;;;;8.37;7.76;;;;;;;2.25;76.35;100521.77;453009;115;922642;-73
2021/12/17 06:17:22;;;;;;;7.20;6.60;;;;;;;2.30;76.44;100523.96;453623;116;922680;-72
2021/12/17 06:18:27;;;;;;;7.24;6.62;;;;;;;2.33;76.46;100518.24;453619;114;922695;-72
2021/12/17 06:19:30;;;;;;;6.37;5.91;;;;;;;2.34;76.29;100519.93;453181;114;923111;-73
2021/12/17 06:20:34;;;;;;;7.60;7.05;;;;;;;2.33;75.92;100513.70;452858;116;922639;-73
2021/12/17 06:21:37;;;;;;;7.82;7.14;;;;;;;2.31;75.70;100509.52;453125;116;923055;-73
2021/12/17 06:22:41;;;;;;;11.34;8.04;;;;;;;2.28;75.58;100515.20;453202;116;930609;-72
2021/12/17 06:23:45;;;;;;;9.36;8.46;;;;;;;2.27;75.56;100508.13;453232;115;930630;-73
2021/12/17 06:24:49;;;;;;;9.38;8.58;;;;;;;2.24;75.50;100511.16;453107;116;922621;-72
2021/12/17 06:25:52;;;;;;;9.24;8.14;;;;;;;2.22;75.42;100513.16;453676;116;922557;-73
2021/12/17 06:26:56;;;;;;;9.08;8.44;;;;;;;2.20;75.36;100518.72;453347;115;930637;-72
2021/12/17 06:28:00;;;;;;;8.82;7.62;;;;;;;2.18;75.40;100509.12;452795;114;922940;-72
2021/12/17 06:29:03;;;;;;;11.66;8.62;;;;;;;2.16;75.27;100517.34;453042;116;923092;-71
2021/12/17 06:30:11;;;;;;;8.81;8.03;;;;;;;2.16;75.35;100516.49;453411;115;930681;-72
2021/12/17 06:31:15;;;;;;;9.42;8.34;;;;;;;2.16;75.37;100519.19;453315;116;922703;-73
2021/12/17 06:32:20;;;;;;;10.89;8.77;;;;;;;2.16;75.52;100521.87;453251;114;922526;-74
2021/12/17 06:33:24;;;;;;;9.81;8.25;;;;;;;2.18;75.70;100520.72;453189;115;923120;-74
2021/12/17 06:34:27;;;;;;;18.04;9.00;;;;;;;2.24;75.82;100511.16;454015;116;931016;-74
2021/12/17 06:35:31;;;;;;;9.69;8.76;;;;;;;2.29;75.88;100520.42;453141;116;922531;-73
2021/12/17 06:36:35;;;;;;;10.48;8.99;;;;;;;2.34;75.80;100523.47;453087;114;922675;-73
2021/12/17 06:37:40;;;;;;;11.28;8.69;;;;;;;2.38;75.80;100519.44;452737;115;922722;-73
2021/12/17 06:38:45;;;;;;;8.72;7.92;;;;;;;2.42;75.63;100519.97;452590;116;930853;-75
2021/12/17 06:39:49;;;;;;;8.48;7.68;;;;;;;2.45;75.51;100525.86;453566;116;922553;-74
2021/12/17 06:40:53;;;;;;;12.48;8.40;;;;;;;2.48;75.25;100527.39;452868;115;930592;-71
2021/12/17 06:41:57;;;;;;;9.84;8.16;;;;;;;2.48;75.10;100527.39;453477;114;930590;-74
2021/12/17 06:43:00;;;;;;;9.53;8.46;;;;;;;2.47;74.99;100520.31;453215;116;930616;-73
2021/12/17 06:44:07;;;;;;;11.64;8.79;;;;;;;2.47;74.92;100520.31;454488;114;930513;-71
2021/12/17 06:45:19;;;;;;;16.70;9.74;;;;;;;2.47;74.83;100510.41;456241;113;930344;-72
2021/12/17 06:47:32;;;;;;;12.76;7.82;;;;;;;2.48;74.81;100516.62;447275;116;923134;-73
2021/12/17 06:48:35;;;;;;;14.40;9.03;;;;;;;2.50;74.78;100514.59;448225;116;923129;-75
2021/12/17 06:58:43;;;;;;;9.94;6.37;;;;;;;2.62;74.39;100505.20;469762;110;924745;-73
2021/12/17 07:01:04;;;;;;;9.89;6.52;;;;;;;2.50;74.60;100510.06;448627;115;923320;-73
2021/12/17 07:10:53;;;;;;;7.86;7.12;;;;;;;2.47;74.43;100498.79;464588;112;922647;-72
2021/12/17 07:20:39;;;;;;;7.23;6.59;;;;;;;2.55;74.13;100506.02;465836;112;922974;-72
2021/12/17 07:21:17;;;;;;;7.63;6.92;;;;;;;2.55;74.18;100504.17;464514;111;922999;-73
2021/12/17 07:22:20;;;;;;;7.41;6.77;;;;;;;2.55;74.21;100501.48;461999;112;922633;-72
2021/12/17 07:23:23;;;;;;;7.30;6.68;;;;;;;2.56;74.28;100488.88;463064;112;922503;-73
2021/12/17 07:32:33;;;;;;;8.09;6.06;;;;;;;2.78;74.11;100491.77;465085;112;922739;-72
2021/12/17 07:33:41;;;;;;;7.51;6.83;;;;;;;2.74;74.14;100490.42;465037;112;922658;-74
2021/12/17 07:35:02;;;;;;;7.80;7.16;;;;;;;2.72;74.12;100492.43;452103;116;922992;-72
2021/12/17 07:35:55;;;;;;;7.09;6.49;;;;;;;2.69;74.22;100492.78;462732;112;922512;-73
2021/12/17 07:39:25;;;;;;;12.62;8.03;;;;;;;2.68;74.75;100487.55;461349;111;922804;-73
2021/12/17 07:40:34;;;;;;;7.38;6.78;;;;;;;2.71;74.92;100490.73;465071;112;922766;-72
2021/12/17 07:41:40;;;;;;;8.36;7.66;;;;;;;2.73;74.98;100493.27;466072;112;922514;-75
2021/12/17 07:42:48;;;;;;;10.35;9.47;;;;;;;2.75;75.08;100485.89;461581;112;923138;-73